createdAt,value
2022-08-03T00:00:27.480Z,98728.22
2022-08-03T00:02:54.793Z,98729.06
2022-08-03T00:05:22.076Z,98725.19
2022-08-03T00:07:49.585Z,98735.41
2022-08-03T00:10:17.090Z,98729.06
2022-08-03T00:12:44.255Z,98735.19
2022-08-03T00:15:16.507Z,98725.47
2022-08-03T00:17:52.949Z,98728.50
2022-08-03T00:20:24.374Z,98734.03
2022-08-03T00:22:51.827Z,98733.50
2022-08-03T00:25:19.623Z,98730.19
2022-08-03T00:27:48.274Z,98726.91
2022-08-03T00:30:16.928Z,98722.78
2022-08-03T00:32:45.309Z,98729.69
2022-08-03T00:35:26.614Z,98730.22
2022-08-03T00:38:00.215Z,98734.66
2022-08-03T00:40:27.562Z,98724.19
2022-08-03T00:42:59.131Z,98731.06
2022-08-03T00:45:31.019Z,98722.78
2022-08-03T00:47:58.401Z,98730.53
2022-08-03T00:50:26.428Z,98724.69
2022-08-03T00:52:54.440Z,98730.53
2022-08-03T00:55:21.485Z,98722.75
2022-08-03T00:57:48.688Z,98720.84
2022-08-03T01:00:17.787Z,98724.69
2022-08-03T01:02:45.011Z,98723.06
2022-08-03T01:05:12.070Z,98729.69
2022-08-03T01:08:14.492Z,98731.34
2022-08-03T01:11:03.193Z,98731.63
2022-08-03T01:14:03.800Z,98734.94
2022-08-03T01:16:55.181Z,98729.16
2022-08-03T01:19:46.874Z,98730.81
2022-08-03T01:22:17.176Z,98732.47
2022-08-03T01:25:05.975Z,98726.94
2022-08-03T01:28:10.923Z,98725.56
2022-08-03T01:30:38.674Z,98748.22
2022-08-03T01:33:12.656Z,98740.19
2022-08-03T01:35:45.932Z,98733.03
2022-08-03T01:38:15.825Z,98729.72
2022-08-03T01:40:43.288Z,98722.00
2022-08-03T01:43:13.817Z,98728.63
2022-08-03T01:45:41.655Z,98721.72
2022-08-03T01:48:08.697Z,98722.84
2022-08-03T01:50:35.719Z,98720.88
2022-08-03T01:53:02.759Z,98723.13
2022-08-03T01:55:29.850Z,98720.09
2022-08-03T01:58:05.604Z,98727.53
2022-08-03T02:00:33.374Z,98728.66
2022-08-03T02:03:00.337Z,98717.59
2022-08-03T02:05:27.478Z,98725.34
2022-08-03T02:07:54.516Z,98721.50
2022-08-03T02:10:34.677Z,98713.22
2022-08-03T02:13:03.223Z,98726.75
2022-08-03T02:15:30.548Z,98719.88
2022-08-03T02:17:58.046Z,98715.13
2022-08-03T02:20:25.085Z,98720.38
2022-08-03T02:22:52.039Z,98730.34
2022-08-03T02:25:19.071Z,98736.38
2022-08-03T02:27:53.476Z,98724.53
2022-08-03T02:30:21.187Z,98717.63
2022-08-03T02:32:52.119Z,98725.09
2022-08-03T02:35:19.681Z,98725.09
2022-08-03T02:37:50.711Z,98723.72
2022-08-03T02:40:19.429Z,98721.81
2022-08-03T02:42:47.390Z,98722.31
2022-08-03T02:45:14.611Z,98719.88
2022-08-03T02:47:54.241Z,98718.47
2022-08-03T02:50:22.411Z,98716.00
2022-08-03T02:52:49.526Z,98709.66
2022-08-03T02:55:17.254Z,98718.22
2022-08-03T02:57:44.389Z,98721.81
2022-08-03T03:00:11.833Z,98727.03
2022-08-03T03:02:38.860Z,98726.50
2022-08-03T03:05:56.300Z,98722.63
2022-08-03T03:07:57.955Z,98729.53
2022-08-03T03:10:25.403Z,98729.53
2022-08-03T03:12:54.201Z,98725.41
2022-08-03T03:15:21.612Z,98725.69
2022-08-03T03:17:50.083Z,98722.09
2022-08-03T03:20:30.292Z,98727.63
2022-08-03T03:22:59.257Z,98728.19
2022-08-03T03:25:26.324Z,98731.47
2022-08-03T03:27:53.533Z,98735.91
2022-08-03T03:30:20.555Z,98737.84
2022-08-03T03:32:47.574Z,98732.06
2022-08-03T03:35:14.835Z,98735.09
2022-08-03T03:37:41.856Z,98748.63
2022-08-03T03:40:09.614Z,98742.28
2022-08-03T03:42:38.541Z,98742.28
2022-08-03T03:45:08.957Z,98747.22
2022-08-03T03:47:36.106Z,98746.13
2022-08-03T03:50:07.040Z,98742.81
2022-08-03T03:52:34.306Z,98739.78
2022-08-03T03:55:01.749Z,98754.66
2022-08-03T03:57:29.690Z,98745.59
2022-08-03T03:59:57.031Z,98742.84
2022-08-03T04:02:24.140Z,98739.25
2022-08-03T04:05:09.535Z,98746.97
2022-08-03T04:08:20.902Z,98756.91
2022-08-03T04:11:01.194Z,98746.16
2022-08-03T04:13:40.107Z,98749.22
2022-08-03T04:16:07.887Z,98750.28
2022-08-03T04:18:35.539Z,98753.88
2022-08-03T04:21:04.485Z,98763.09
2022-08-03T04:23:34.416Z,98763.75
2022-08-03T04:26:02.771Z,98762.06
2022-08-03T04:28:31.984Z,98768.66
2022-08-03T04:31:01.950Z,98777.22
2022-08-03T04:33:30.471Z,98771.69
2022-08-03T04:36:02.952Z,98771.97
2022-08-03T04:38:34.305Z,98776.13
2022-08-03T04:41:01.442Z,98782.44
2022-08-03T04:43:31.124Z,98781.59
2022-08-03T04:45:58.329Z,98779.13
2022-08-03T04:48:25.419Z,98778.84
2022-08-03T04:50:52.662Z,98774.44
2022-08-03T04:53:19.869Z,98783.50
2022-08-03T04:55:47.039Z,98784.66
2022-08-03T04:58:14.150Z,98786.56
2022-08-03T05:00:41.213Z,98778.28
2022-08-03T05:03:23.553Z,98786.84
2022-08-03T05:06:10.022Z,98784.91
2022-08-03T05:08:45.919Z,98779.66
2022-08-03T05:11:15.846Z,98786.84
2022-08-03T05:13:43.312Z,98781.59
2022-08-03T05:16:10.347Z,98787.41
2022-08-03T05:18:40.490Z,98783.81
2022-08-03T05:21:07.519Z,98778.31
2022-08-03T05:23:34.619Z,98784.34
2022-08-03T05:26:01.658Z,98779.66
2022-08-03T05:28:28.854Z,98783.50
2022-08-03T05:30:55.954Z,98787.34
2022-08-03T05:33:22.991Z,98781.84
2022-08-03T05:36:02.485Z,98792.09
2022-08-03T05:38:34.368Z,98787.09
2022-08-03T05:41:21.240Z,98788.19
2022-08-03T05:43:54.555Z,98800.06
2022-08-03T05:46:25.127Z,98789.59
2022-08-03T05:48:52.297Z,98790.13
2022-08-03T05:51:19.589Z,98787.09
2022-08-03T05:53:46.722Z,98790.13
2022-08-03T05:56:16.368Z,98792.34
2022-08-03T05:58:45.006Z,98787.91
2022-08-03T06:01:12.216Z,98779.06
2022-08-03T06:03:39.354Z,98788.47
2022-08-03T06:06:06.580Z,98791.25
2022-08-03T06:08:33.899Z,98788.47
2022-08-03T06:11:01.040Z,98798.94
2022-08-03T06:13:28.169Z,98789.56
2022-08-03T06:15:55.279Z,98788.75
2022-08-03T06:18:22.305Z,98793.44
2022-08-03T06:20:50.370Z,98797.53
2022-08-03T06:23:19.385Z,98801.13
2022-08-03T06:25:47.227Z,98796.72
2022-08-03T06:28:51.241Z,98793.44
2022-08-03T06:31:06.536Z,98800.03
2022-08-03T06:34:31.653Z,98802.25
2022-08-03T06:36:20.957Z,98798.94
2022-08-03T06:38:48.102Z,98798.38
2022-08-03T06:41:15.197Z,98799.47
2022-08-03T06:44:03.466Z,98803.91
2022-08-03T06:46:29.829Z,98802.25
2022-08-03T06:48:56.940Z,98807.22
2022-08-03T06:52:04.630Z,98810.50
2022-08-03T06:54:11.240Z,98810.25
2022-08-03T06:56:38.424Z,98807.22
2022-08-03T06:59:05.505Z,98803.88
2022-08-03T07:01:32.698Z,98813.25
2022-08-03T07:04:00.814Z,98804.44
2022-08-03T07:06:27.939Z,98807.22
2022-08-03T07:08:59.408Z,98808.84
2022-08-03T07:11:27.070Z,98806.06
2022-08-03T07:13:54.148Z,98804.44
2022-08-03T07:16:21.204Z,98800.56
2022-08-03T07:18:48.305Z,98800.56
2022-08-03T07:21:17.030Z,98800.00
2022-08-03T07:23:44.150Z,98807.72
2022-08-03T07:26:11.955Z,98800.00
2022-08-03T07:28:39.113Z,98804.44
2022-08-03T07:31:06.173Z,98804.44
2022-08-03T07:33:33.199Z,98804.44
2022-08-03T07:36:00.283Z,98801.66
2022-08-03T07:38:27.365Z,98799.44
2022-08-03T07:40:54.545Z,98790.63
2022-08-03T07:43:21.647Z,98794.47
2022-08-03T07:45:48.781Z,98796.41
2022-08-03T07:48:16.119Z,98791.16
2022-08-03T07:50:43.201Z,98792.53
2022-08-03T07:53:10.340Z,98800.53
2022-08-03T07:55:37.403Z,98800.81
2022-08-03T07:58:10.126Z,98793.63
2022-08-03T08:00:37.288Z,98791.69
2022-08-03T08:03:04.938Z,98796.09
2022-08-03T08:05:32.009Z,98792.78
2022-08-03T08:07:59.095Z,98795.00
2022-08-03T08:10:26.193Z,98791.13
2022-08-03T08:12:53.557Z,98795.25
2022-08-03T08:15:20.554Z,98793.63
2022-08-03T08:17:48.485Z,98798.56
2022-08-03T08:20:27.766Z,98804.91
2022-08-03T08:22:57.642Z,98793.88
2022-08-03T08:25:25.792Z,98796.38
2022-08-03T08:28:31.874Z,98796.91
2022-08-03T08:30:40.042Z,98814.88
2022-08-03T08:33:08.608Z,98802.44
2022-08-03T08:35:37.560Z,98801.59
2022-08-03T08:38:05.948Z,98800.50
2022-08-03T08:40:33.210Z,98804.91
2022-08-03T08:43:00.227Z,98801.88
2022-08-03T08:45:27.931Z,98807.41
2022-08-03T08:47:59.899Z,98808.22
2022-08-03T08:50:28.955Z,98809.34
2022-08-03T08:52:56.119Z,98804.34
2022-08-03T08:55:23.835Z,98808.50
2022-08-03T08:57:52.964Z,98802.97
2022-08-03T09:00:20.385Z,98802.13
2022-08-03T09:02:47.504Z,98809.84
2022-08-03T09:05:22.535Z,98808.19
2022-08-03T09:07:58.859Z,98807.09
2022-08-03T09:10:26.066Z,98806.81
2022-08-03T09:12:53.211Z,98803.75
2022-08-03T09:15:25.437Z,98800.72
2022-08-03T09:17:54.103Z,98806.50
2022-08-03T09:20:22.110Z,98802.66
2022-08-03T09:22:56.515Z,98801.78
2022-08-03T09:25:37.279Z,98805.66
2022-08-03T09:28:12.079Z,98789.38
2022-08-03T09:30:40.481Z,98799.63
2022-08-03T09:33:08.997Z,98797.69
2022-08-03T09:36:02.091Z,98799.31
2022-08-03T09:38:29.074Z,98791.56
2022-08-03T09:40:59.980Z,98801.53
2022-08-03T09:43:28.247Z,98795.44
2022-08-03T09:46:15.497Z,98797.94
2022-08-03T09:48:42.605Z,98790.47
2022-08-03T09:51:12.970Z,98782.72
2022-08-03T09:54:02.046Z,98783.81
2022-08-03T09:56:45.537Z,98784.63
2022-08-03T09:59:14.512Z,98775.53
2022-08-03T10:01:42.063Z,98779.94
2022-08-03T10:04:14.396Z,98784.34
2022-08-03T10:06:41.663Z,98775.50
2022-08-03T10:09:09.538Z,98776.88
2022-08-03T10:11:41.199Z,98781.56
2022-08-03T10:14:10.482Z,98782.66
2022-08-03T10:16:39.812Z,98778.78
2022-08-03T10:19:08.171Z,98776.56
2022-08-03T10:21:39.040Z,98777.69
2022-08-03T10:24:07.742Z,98783.22
2022-08-03T10:26:39.443Z,98780.72
2022-08-03T10:29:21.844Z,98772.16
2022-08-03T10:31:57.435Z,98781.53
2022-08-03T10:34:27.530Z,98773.25
2022-08-03T10:36:57.696Z,98771.31
2022-08-03T10:39:25.619Z,98771.00
2022-08-03T10:41:52.813Z,98769.91
2022-08-03T10:44:21.349Z,98770.47
2022-08-03T10:46:51.135Z,98770.75
2022-08-03T10:49:19.160Z,98762.72
2022-08-03T10:52:02.616Z,98754.16
2022-08-03T10:54:58.433Z,98759.66
2022-08-03T10:57:47.469Z,98760.47
2022-08-03T11:00:27.138Z,98769.28
2022-08-03T11:03:10.867Z,98754.94
2022-08-03T11:05:49.515Z,98755.47
2022-08-03T11:08:20.187Z,98760.44
2022-08-03T11:10:47.925Z,98765.97
2022-08-03T11:13:19.252Z,98757.97
2022-08-03T11:15:47.307Z,98756.53
2022-08-03T11:18:14.898Z,98761.25
2022-08-03T11:20:56.041Z,98762.91
2022-08-03T11:24:04.285Z,98745.50
2022-08-03T11:26:34.096Z,98744.38
2022-08-03T11:29:29.776Z,98731.38
2022-08-03T11:31:57.390Z,98745.22
2022-08-03T11:34:24.928Z,98733.88
2022-08-03T11:37:23.571Z,98739.91
2022-08-03T11:39:53.350Z,98734.97
2022-08-03T11:42:23.544Z,98731.06
2022-08-03T11:44:51.443Z,98737.16
2022-08-03T11:47:18.712Z,98726.94
2022-08-03T11:49:50.667Z,98725.53
2022-08-03T11:52:18.119Z,98720.00
2022-08-03T11:54:45.175Z,98718.59
2022-08-03T11:57:12.336Z,98724.94
2022-08-03T11:59:39.440Z,98717.19
2022-08-03T12:02:10.579Z,98707.78
2022-08-03T12:05:01.645Z,98708.59
2022-08-03T12:08:03.113Z,98705.56
2022-08-03T12:10:17.323Z,98708.84
2022-08-03T12:12:46.674Z,98701.69
2022-08-03T12:15:13.930Z,98701.09
2022-08-03T12:17:57.615Z,98709.91
2022-08-03T12:20:34.737Z,98704.38
2022-08-03T12:23:05.973Z,98695.78
2022-08-03T12:25:39.657Z,98699.41
2022-08-03T12:28:36.294Z,98704.66
2022-08-03T12:31:02.284Z,98683.34
2022-08-03T12:33:29.462Z,98692.16
2022-08-03T12:36:09.512Z,98695.47
2022-08-03T12:38:39.516Z,98688.81
2022-08-03T12:41:16.953Z,98691.56
2022-08-03T12:43:49.997Z,98683.81
2022-08-03T12:46:19.359Z,98687.13
2022-08-03T12:48:59.192Z,98684.09
2022-08-03T12:51:27.831Z,98665.00
2022-08-03T12:53:55.433Z,98672.75
2022-08-03T12:56:22.557Z,98672.75
2022-08-03T12:58:50.654Z,98679.63
2022-08-03T13:01:17.895Z,98674.69
2022-08-03T13:03:50.143Z,98678.22
2022-08-03T13:06:21.453Z,98680.44
2022-08-03T13:08:50.137Z,98677.69
2022-08-03T13:11:47.605Z,98682.94
2022-08-03T13:14:19.646Z,98678.50
2022-08-03T13:16:50.636Z,98680.69
2022-08-03T13:19:17.786Z,98682.66
2022-08-03T13:21:53.561Z,98674.34
2022-08-03T13:24:31.536Z,98677.63
2022-08-03T13:26:59.380Z,98676.75
2022-08-03T13:29:26.590Z,98673.94
2022-08-03T13:31:53.672Z,98671.28
2022-08-03T13:34:23.393Z,98673.88
2022-08-03T13:39:58.078Z,98674.00
2022-08-03T13:42:30.704Z,98665.22
2022-08-03T13:44:57.814Z,98665.81
2022-08-03T13:47:30.020Z,98665.75
2022-08-03T13:50:00.818Z,98677.88
2022-08-03T13:52:33.378Z,98672.09
2022-08-03T13:55:01.044Z,98667.44
2022-08-03T13:58:04.970Z,98670.91
2022-08-03T14:00:26.566Z,98672.19
2022-08-03T14:03:02.877Z,98661.31
2022-08-03T14:05:32.431Z,98667.13
2022-08-03T14:08:04.624Z,98660.66
2022-08-03T14:10:36.614Z,98665.31
2022-08-03T14:13:04.466Z,98663.66
2022-08-03T14:15:31.515Z,98644.19
2022-08-03T14:18:12.660Z,98651.34
2022-08-03T14:20:49.958Z,98647.78
2022-08-03T14:23:22.062Z,98655.94
2022-08-03T14:25:55.481Z,98650.16
2022-08-03T14:28:29.755Z,98654.97
2022-08-03T14:31:01.662Z,98651.97
2022-08-03T14:33:34.518Z,98661.41
2022-08-03T14:36:02.520Z,98642.38
2022-08-03T14:38:31.309Z,98645.44
2022-08-03T14:41:01.779Z,98640.72
2022-08-03T14:43:33.874Z,98641.94
2022-08-03T14:46:01.582Z,98650.75
2022-08-03T14:50:26.511Z,98645.00
2022-08-03T14:51:15.867Z,98642.50
2022-08-03T14:53:42.961Z,98638.09
2022-08-03T14:56:10.937Z,98643.13
2022-08-03T14:58:38.246Z,98638.19
2022-08-03T15:02:02.176Z,98639.31
2022-08-03T15:03:57.566Z,98634.00
2022-08-03T15:06:24.700Z,98637.81
2022-08-03T15:09:13.861Z,98638.91
2022-08-03T15:11:39.431Z,98641.19
2022-08-03T15:14:09.330Z,98632.34
2022-08-03T15:16:37.332Z,98634.22
2022-08-03T15:21:57.810Z,98625.31
2022-08-03T15:24:28.502Z,98625.84
2022-08-03T15:26:55.592Z,98614.25
2022-08-03T15:30:09.551Z,98619.69
2022-08-03T15:32:09.849Z,98605.84
2022-08-03T15:34:37.195Z,98616.00
2022-08-03T15:37:15.067Z,98610.81
2022-08-03T15:39:58.941Z,98610.03
2022-08-03T15:42:29.280Z,98615.28
2022-08-03T15:44:56.447Z,98612.81
2022-08-03T15:47:23.503Z,98615.28
2022-08-03T15:49:50.542Z,98621.41
2022-08-03T15:52:17.615Z,98612.59
2022-08-03T15:54:44.647Z,98617.09
2022-08-03T15:57:11.734Z,98599.41
2022-08-03T15:59:39.007Z,98613.78
2022-08-03T16:02:06.100Z,98606.06
2022-08-03T16:04:36.181Z,98600.22
2022-08-03T16:07:05.925Z,98602.22
2022-08-03T16:09:42.036Z,98596.69
2022-08-03T16:12:11.893Z,98601.06
2022-08-03T16:14:52.464Z,98592.78
2022-08-03T16:17:21.050Z,98591.16
2022-08-03T16:19:48.490Z,98591.16
2022-08-03T16:22:19.587Z,98575.94
2022-08-03T16:24:58.349Z,98586.72
2022-08-03T16:27:37.005Z,98580.66
2022-08-03T16:30:08.352Z,98573.72
2022-08-03T16:32:35.979Z,98574.00
2022-08-03T16:35:03.087Z,98578.66
2022-08-03T16:37:39.027Z,98579.25
2022-08-03T16:40:17.329Z,98577.06
2022-08-03T16:42:46.951Z,98580.97
2022-08-03T16:45:14.364Z,98574.88
2022-08-03T16:47:41.783Z,98576.84
2022-08-03T16:50:17.228Z,98580.72
2022-08-03T16:52:46.965Z,98579.59
2022-08-03T16:55:43.533Z,98565.81
2022-08-03T16:58:03.764Z,98581.53
2022-08-03T17:00:33.688Z,98585.47
2022-08-03T17:03:04.318Z,98586.56
2022-08-03T17:05:43.858Z,98594.34
2022-08-03T17:08:26.159Z,98592.09
2022-08-03T17:10:55.253Z,98592.34
2022-08-03T17:13:22.976Z,98585.13
2022-08-03T17:16:06.278Z,98591.50
2022-08-03T17:18:36.553Z,98602.34
2022-08-03T17:21:04.251Z,98585.81
2022-08-03T17:23:50.973Z,98597.72
2022-08-03T17:26:21.831Z,98593.59
2022-08-03T17:28:57.261Z,98601.59
2022-08-03T17:31:32.224Z,98603.53
2022-08-03T17:34:09.409Z,98600.25
2022-08-03T17:37:02.736Z,98598.81
2022-08-03T17:39:42.140Z,98601.03
2022-08-03T17:42:29.216Z,98614.88
2022-08-03T17:44:58.519Z,98604.91
2022-08-03T17:47:42.342Z,98620.16
2022-08-03T17:50:25.203Z,98616.88
2022-08-03T17:53:07.263Z,98618.59
2022-08-03T17:55:54.993Z,98618.03
2022-08-03T17:58:53.768Z,98626.88
2022-08-03T18:02:02.120Z,98626.34
2022-08-03T18:04:30.819Z,98639.06
2022-08-03T18:07:11.951Z,98622.75
2022-08-03T18:10:04.201Z,98626.88
2022-08-03T18:12:29.225Z,98625.84
2022-08-03T18:15:01.490Z,98636.31
2022-08-03T18:17:58.238Z,98627.78
2022-08-03T18:20:34.140Z,98621.69
2022-08-03T18:23:07.966Z,98625.34
2022-08-03T18:28:23.544Z,98638.13
2022-08-03T18:30:53.275Z,98629.84
2022-08-03T18:34:16.178Z,98640.91
2022-08-03T18:36:17.480Z,98644.78
2022-08-03T18:38:47.227Z,98649.25
2022-08-03T18:41:20.688Z,98644.31
2022-08-03T18:44:07.829Z,98650.38
2022-08-03T18:50:24.545Z,98653.44
2022-08-03T19:00:54.810Z,98664.25
2022-08-03T19:07:07.907Z,98675.88
2022-08-03T19:21:47.338Z,98669.88
2022-08-03T19:25:02.275Z,98669.88
2022-08-03T19:28:39.583Z,98672.03
2022-08-03T19:46:06.140Z,98693.63
2022-08-03T19:49:57.114Z,98673.53
2022-08-03T20:16:57.633Z,98688.69
2022-08-03T20:19:24.903Z,98671.25
2022-08-03T20:22:01.181Z,98673.53
2022-08-03T20:24:35.242Z,98673.19
2022-08-03T20:27:07.862Z,98669.38
2022-08-03T20:30:06.232Z,98664.44
2022-08-03T20:32:31.456Z,98670.25
2022-08-03T20:34:59.356Z,98674.91
2022-08-03T20:37:30.453Z,98663.59
2022-08-03T20:51:49.972Z,98687.03
2022-08-03T20:56:12.381Z,98679.88
2022-08-03T20:58:50.709Z,98686.53
2022-08-03T21:01:27.896Z,98684.03
2022-08-03T21:04:11.946Z,98693.16
2022-08-03T21:06:53.675Z,98693.16
2022-08-03T21:09:24.365Z,98689.28
2022-08-03T21:12:02.156Z,98689.84
2022-08-03T21:12:58.031Z,98631.16
2022-08-03T21:14:39.603Z,98695.38
2022-08-03T21:17:25.035Z,98691.50
2022-08-03T21:19:54.040Z,98697.34
2022-08-03T21:22:22.784Z,98692.09
2022-08-03T21:24:54.119Z,98689.34
2022-08-03T21:27:24.607Z,98697.09
2022-08-03T21:29:53.365Z,98697.09
2022-08-03T21:32:32.601Z,98694.03
2022-08-03T21:35:01.126Z,98692.09
2022-08-03T21:37:28.511Z,98694.31
2022-08-03T21:39:55.819Z,98692.38
2022-08-03T21:42:25.863Z,98699.84
2022-08-03T21:44:53.620Z,98701.25
2022-08-03T21:47:23.792Z,98708.72
2022-08-03T21:50:08.238Z,98705.94
2022-08-03T21:52:40.281Z,98705.13
2022-08-03T21:55:07.938Z,98698.75
2022-08-03T21:57:37.628Z,98701.00
2022-08-03T22:00:18.649Z,98709.00
2022-08-03T22:02:53.193Z,98699.34
2022-08-03T22:05:29.035Z,98697.69
2022-08-03T22:08:10.125Z,98695.75
2022-08-03T22:10:37.316Z,98702.41
2022-08-03T22:13:04.418Z,98704.06
2022-08-03T22:15:31.676Z,98696.03
2022-08-03T22:17:58.721Z,98706.00
2022-08-03T22:20:25.907Z,98703.22
2022-08-03T22:22:56.011Z,98704.34
2022-08-03T22:25:27.493Z,98697.19
2022-08-03T22:27:54.708Z,98699.13
2022-08-03T22:30:21.927Z,98695.22
2022-08-03T22:32:50.420Z,98701.31
2022-08-03T22:35:17.508Z,98702.44
2022-08-03T22:37:44.597Z,98696.06
2022-08-03T22:40:14.407Z,98706.03
2022-08-03T22:42:42.461Z,98709.38
2022-08-03T22:45:09.706Z,98701.09
2022-08-03T22:47:37.989Z,98708.56
2022-08-03T22:50:31.968Z,98713.53
2022-08-03T22:53:00.779Z,98706.06
2022-08-03T22:55:27.997Z,98705.78
2022-08-03T22:57:55.725Z,98712.16
2022-08-03T23:00:23.911Z,98706.63
2022-08-03T23:02:51.192Z,98704.13
2022-08-03T23:06:01.494Z,98702.47
2022-08-03T23:08:10.370Z,98698.38
2022-08-03T23:10:37.461Z,98695.31
2022-08-03T23:13:04.587Z,98690.91
2022-08-03T23:15:31.770Z,98689.78
2022-08-03T23:17:59.106Z,98700.03
2022-08-03T23:20:26.863Z,98700.03
2022-08-03T23:22:55.964Z,98694.78
2022-08-03T23:25:23.025Z,98686.47
2022-08-03T23:28:05.186Z,98686.47
2022-08-03T23:30:33.650Z,98686.75
2022-08-03T23:33:00.849Z,98687.91
2022-08-03T23:36:28.622Z,98683.19
2022-08-03T23:38:36.947Z,98684.00
2022-08-03T23:41:04.977Z,98684.81
2022-08-03T23:43:44.992Z,98674.59
2022-08-03T23:46:20.006Z,98673.25
2022-08-03T23:48:47.173Z,98679.59
2022-08-03T23:51:28.043Z,98678.47
2022-08-03T23:54:01.775Z,98677.66
2022-08-03T23:57:11.326Z,98677.66
